Terminal Aerodrome Forecast
Issued by NWS Flagstaff, AZ

Current Version | Previous Version | Text Only | Print | Product List | Glossary On
Versions: 1 2 3 4 5 6 7 8 9 10 11 12 13 14
000
FTUS45 KFGZ 172300
TAFINW
TAF
KINW 172340Z 1800/1824 24010KT P6SM VCSH SCT035 BKN060
      TEMPO 1800/1803 -SHRA BKN025
     FM180300 VRB04KT P6SM VCFG SCT015 BKN025
      TEMPO 1803/1807 3SM BR OVC015
     FM180700 00000KT 3SM BR BKN018 PROB30 1813/1816 2SM -SHRA
      OVC018
     FM181700 VRB05KT P6SM SCT025 SCT040=

USA.gov is the U.S. government's official web portal to all federal, state and local government web resources and services.